createdAt,value
2023-03-01T00:01:44.296Z,-2.10
2023-03-01T00:04:11.267Z,-2.10
2023-03-01T00:06:38.907Z,-2.10
2023-03-01T00:09:06.083Z,-2.10
2023-03-01T00:11:35.389Z,-2.10
2023-03-01T00:14:10.598Z,-2.20
2023-03-01T00:16:43.049Z,-2.20
2023-03-01T00:19:20.101Z,-2.10
2023-03-01T00:21:47.624Z,-2.10
2023-03-01T00:24:16.394Z,-2.20
2023-03-01T00:26:43.648Z,-2.20
2023-03-01T00:29:10.678Z,-2.30
2023-03-01T00:31:37.728Z,-2.30
2023-03-01T00:34:06.430Z,-2.30
2023-03-01T00:36:40.497Z,-2.30
2023-03-01T00:39:14.554Z,-2.30
2023-03-01T00:41:42.484Z,-2.40
2023-03-01T00:44:09.784Z,-2.40
2023-03-01T00:46:40.320Z,-2.40
2023-03-01T00:49:07.499Z,-2.50
2023-03-01T00:51:34.845Z,-2.50
2023-03-01T00:54:04.151Z,-2.60
2023-03-01T00:56:32.405Z,-2.60
2023-03-01T00:58:59.664Z,-2.70
2023-03-01T01:01:30.678Z,-2.70
2023-03-01T01:04:09.354Z,-2.70
2023-03-01T01:06:40.846Z,-2.80
2023-03-01T01:09:09.506Z,-2.80
2023-03-01T01:11:39.937Z,-2.80
2023-03-01T01:14:07.020Z,-2.80
2023-03-01T01:16:34.557Z,-2.80
2023-03-01T01:19:01.656Z,-2.80
2023-03-01T01:21:29.389Z,-2.80
2023-03-01T01:23:58.076Z,-2.80
2023-03-01T01:26:35.814Z,-2.80
2023-03-01T01:29:05.037Z,-2.80
2023-03-01T01:31:34.566Z,-2.80
2023-03-01T01:34:03.990Z,-2.80
2023-03-01T01:36:32.417Z,-2.80
2023-03-01T01:39:00.241Z,-2.80
2023-03-01T01:41:30.063Z,-2.80
2023-03-01T01:45:09.858Z,-2.80
2023-03-01T01:47:36.949Z,-2.80
2023-03-01T01:50:04.374Z,-2.80
2023-03-01T01:52:38.575Z,-2.80
2023-03-01T01:55:13.184Z,-2.80
2023-03-01T01:57:45.854Z,-2.70
2023-03-01T02:00:26.170Z,-2.70
2023-03-01T02:03:01.050Z,-2.70
2023-03-01T02:05:55.559Z,-2.80
2023-03-01T02:08:28.482Z,-2.80
2023-03-01T02:10:57.274Z,-2.90
2023-03-01T02:13:24.769Z,-2.90
2023-03-01T02:15:52.020Z,-2.90
2023-03-01T02:18:22.219Z,-2.90
2023-03-01T02:21:45.541Z,-3.00
2023-03-01T02:25:13.727Z,-2.90
2023-03-01T02:28:15.294Z,-2.90
2023-03-01T02:31:04.508Z,-2.90
2023-03-01T02:33:34.137Z,-2.90
2023-03-01T02:36:06.635Z,-2.90
2023-03-01T02:38:33.909Z,-2.90
2023-03-01T02:41:03.952Z,-2.90
2023-03-01T02:43:34.326Z,-2.90
2023-03-01T02:46:16.480Z,-3.00
2023-03-01T02:49:03.098Z,-3.00
2023-03-01T02:51:54.130Z,-3.10
2023-03-01T02:54:35.384Z,-3.10
2023-03-01T02:57:02.790Z,-3.20
2023-03-01T02:59:40.208Z,-3.20
2023-03-01T03:02:09.412Z,-3.30
2023-03-01T03:04:36.455Z,-3.30
2023-03-01T03:07:03.463Z,-3.40
2023-03-01T03:09:30.544Z,-3.40
2023-03-01T03:11:57.636Z,-3.40
2023-03-01T03:14:24.673Z,-3.50
2023-03-01T03:16:51.971Z,-3.50
2023-03-01T03:19:20.761Z,-3.50
2023-03-01T03:21:47.826Z,-3.50
2023-03-01T03:24:14.846Z,-3.50
2023-03-01T03:26:54.127Z,-3.50
2023-03-01T03:29:21.292Z,-3.50
2023-03-01T03:31:48.441Z,-3.50
2023-03-01T03:34:19.056Z,-3.50
2023-03-01T03:36:46.243Z,-3.40
2023-03-01T03:39:13.309Z,-3.40
2023-03-01T03:41:45.346Z,-3.40
2023-03-01T03:44:12.352Z,-3.40
2023-03-01T03:46:39.413Z,-3.50
2023-03-01T03:49:06.501Z,-3.50
2023-03-01T03:51:33.483Z,-3.60
2023-03-01T03:54:00.508Z,-3.60
2023-03-01T03:56:28.903Z,-3.60
2023-03-01T03:58:56.196Z,-3.60
2023-03-01T04:01:23.242Z,-3.70
2023-03-01T04:03:55.427Z,-3.70
2023-03-01T04:06:23.022Z,-3.70
2023-03-01T04:09:01.084Z,-3.70
2023-03-01T04:11:28.262Z,-3.70
2023-03-01T04:13:59.297Z,-3.60
2023-03-01T04:16:26.995Z,-3.60
2023-03-01T04:18:54.562Z,-3.50
2023-03-01T04:21:22.218Z,-3.50
2023-03-01T04:23:49.512Z,-3.50
2023-03-01T04:26:16.655Z,-3.50
2023-03-01T04:28:46.334Z,-3.40
2023-03-01T04:31:18.441Z,-3.40
2023-03-01T04:33:52.675Z,-3.40
2023-03-01T04:36:24.045Z,-3.40
2023-03-01T04:39:25.379Z,-3.30
2023-03-01T04:41:58.702Z,-3.30
2023-03-01T04:44:25.720Z,-3.30
2023-03-01T04:46:52.733Z,-3.30
2023-03-01T04:49:19.801Z,-3.20
2023-03-01T04:51:47.837Z,-3.20
2023-03-01T04:54:15.031Z,-3.10
2023-03-01T04:56:42.019Z,-3.20
2023-03-01T04:59:11.003Z,-3.20
2023-03-01T05:01:38.864Z,-3.30
2023-03-01T05:04:07.009Z,-3.30
2023-03-01T05:06:35.380Z,-3.40
2023-03-01T05:09:02.384Z,-3.40
2023-03-01T05:11:34.352Z,-3.40
2023-03-01T05:14:01.375Z,-3.50
2023-03-01T05:16:34.158Z,-3.50
2023-03-01T05:19:12.386Z,-3.60
2023-03-01T05:22:00.239Z,-3.60
2023-03-01T05:24:28.667Z,-3.60
2023-03-01T05:26:56.190Z,-3.60
2023-03-01T05:29:28.145Z,-3.60
2023-03-01T05:31:59.182Z,-3.70
2023-03-01T05:34:29.207Z,-3.70
2023-03-01T05:37:32.965Z,-3.70
2023-03-01T05:39:59.896Z,-3.80
2023-03-01T05:42:26.966Z,-3.80
2023-03-01T05:44:53.984Z,-3.80
2023-03-01T05:47:22.219Z,-3.80
2023-03-01T05:49:51.221Z,-3.80
2023-03-01T05:52:18.250Z,-3.80
2023-03-01T05:54:45.514Z,-3.80
2023-03-01T05:57:12.563Z,-3.80
2023-03-01T05:59:39.693Z,-3.80
2023-03-01T06:02:06.771Z,-3.80
2023-03-01T06:04:33.849Z,-3.90
2023-03-01T06:07:00.844Z,-3.90
2023-03-01T06:09:27.909Z,-3.90
2023-03-01T06:11:54.933Z,-4.00
2023-03-01T06:14:22.042Z,-4.00
2023-03-01T06:16:49.011Z,-3.90
2023-03-01T06:19:16.972Z,-3.80
2023-03-01T06:21:44.066Z,-3.80
2023-03-01T06:24:11.097Z,-3.80
2023-03-01T06:26:38.180Z,-3.80
2023-03-01T06:29:05.131Z,-3.80
2023-03-01T06:31:32.130Z,-3.70
2023-03-01T06:34:00.217Z,-3.70
2023-03-01T06:36:53.464Z,-3.70
2023-03-01T06:39:36.809Z,-3.60
2023-03-01T06:42:05.138Z,-3.70
2023-03-01T06:44:32.532Z,-3.70
2023-03-01T06:47:00.306Z,-3.70
2023-03-01T06:49:27.566Z,-3.70
2023-03-01T06:51:54.700Z,-3.70
2023-03-01T06:54:23.373Z,-3.70
2023-03-01T06:56:51.675Z,-3.70
2023-03-01T06:59:19.533Z,-3.70
2023-03-01T07:01:46.701Z,-3.70
2023-03-01T07:04:14.714Z,-3.70
2023-03-01T07:06:41.917Z,-3.60
2023-03-01T07:09:08.998Z,-3.60
2023-03-01T07:11:36.158Z,-3.50
2023-03-01T07:14:03.412Z,-3.40
2023-03-01T07:16:30.692Z,-3.40
2023-03-01T07:18:59.693Z,-3.30
2023-03-01T07:21:26.841Z,-3.30
2023-03-01T07:23:53.910Z,-3.20
2023-03-01T07:26:21.093Z,-3.00
2023-03-01T07:28:48.170Z,-3.00
2023-03-01T07:31:15.528Z,-2.90
2023-03-01T07:33:57.504Z,-2.80
2023-03-01T07:36:25.387Z,-2.70
2023-03-01T07:38:52.880Z,-2.60
2023-03-01T07:41:19.935Z,-2.40
2023-03-01T07:43:46.941Z,-2.30
2023-03-01T07:46:14.365Z,-2.20
2023-03-01T07:48:41.529Z,-2.00
2023-03-01T07:51:09.110Z,-1.90
2023-03-01T07:53:36.684Z,-1.70
2023-03-01T07:56:12.771Z,-1.50
2023-03-01T07:58:43.284Z,-1.20
2023-03-01T08:01:18.717Z,-0.90
2023-03-01T08:03:45.932Z,-0.60
2023-03-01T08:06:15.870Z,-0.40
2023-03-01T08:08:43.456Z,-0.10
2023-03-01T08:11:13.783Z,0.10
2023-03-01T08:13:41.359Z,0.60
2023-03-01T08:16:23.120Z,1.30
2023-03-01T08:18:50.211Z,2.30
2023-03-01T08:21:18.658Z,3.20
2023-03-01T08:23:45.993Z,4.20
2023-03-01T08:26:21.969Z,5.20
2023-03-01T08:28:50.316Z,6.20
2023-03-01T08:31:39.455Z,7.10
2023-03-01T08:34:12.035Z,7.70
2023-03-01T08:36:45.255Z,8.10
2023-03-01T08:39:16.666Z,8.40
2023-03-01T08:41:45.470Z,8.60
2023-03-01T08:44:17.710Z,8.60
2023-03-01T08:46:46.612Z,8.60
2023-03-01T08:49:19.857Z,8.50
2023-03-01T08:51:48.556Z,8.80
2023-03-01T08:54:22.404Z,9.10
2023-03-01T08:56:49.910Z,9.10
2023-03-01T08:59:18.429Z,9.10
2023-03-01T09:01:45.503Z,9.00
2023-03-01T09:04:13.839Z,9.10
2023-03-01T09:06:41.049Z,9.10
2023-03-01T09:09:15.967Z,9.20
2023-03-01T09:11:44.687Z,9.00
2023-03-01T09:14:14.028Z,9.20
2023-03-01T09:16:41.110Z,9.20
2023-03-01T09:19:08.184Z,9.20
2023-03-01T09:21:40.547Z,9.20
2023-03-01T09:24:15.189Z,9.20
2023-03-01T09:26:42.741Z,8.90
2023-03-01T09:29:10.908Z,9.20
2023-03-01T09:31:38.358Z,9.50
2023-03-01T09:34:05.720Z,9.60
2023-03-01T09:36:34.456Z,9.60
2023-03-01T09:39:02.347Z,9.70
2023-03-01T09:41:50.980Z,9.20
2023-03-01T09:44:23.720Z,8.80
2023-03-01T09:46:52.296Z,8.60
2023-03-01T09:49:24.943Z,8.50
2023-03-01T09:52:29.754Z,8.10
2023-03-01T09:55:00.392Z,7.90
2023-03-01T09:57:39.894Z,8.10
2023-03-01T10:00:32.646Z,8.10
2023-03-01T10:03:11.741Z,8.10
2023-03-01T10:05:54.036Z,8.00
2023-03-01T10:08:59.470Z,7.70
2023-03-01T10:11:34.387Z,7.40
2023-03-01T10:14:35.082Z,7.40
2023-03-01T10:17:16.033Z,7.40
2023-03-01T10:19:47.220Z,7.40
2023-03-01T10:22:30.079Z,7.50
2023-03-01T10:24:59.789Z,7.50
2023-03-01T10:27:53.227Z,7.40
2023-03-01T10:30:37.100Z,7.60
2023-03-01T10:33:11.653Z,7.60
2023-03-01T10:35:38.717Z,7.50
2023-03-01T10:38:11.255Z,7.30
2023-03-01T10:41:02.224Z,7.30
2023-03-01T10:43:50.633Z,7.20
2023-03-01T10:46:30.842Z,7.20
2023-03-01T10:49:19.147Z,7.30
2023-03-01T10:51:53.286Z,7.40
2023-03-01T10:54:34.383Z,7.50
2023-03-01T10:57:04.872Z,7.70
2023-03-01T10:59:38.153Z,7.70
2023-03-01T11:02:24.930Z,7.90
2023-03-01T11:05:16.152Z,8.00
2023-03-01T11:08:11.249Z,8.10
2023-03-01T11:10:38.340Z,8.40
2023-03-01T11:13:17.380Z,8.60
2023-03-01T11:16:00.316Z,8.70
2023-03-01T11:18:44.305Z,8.50
2023-03-01T11:21:14.140Z,8.70
2023-03-01T11:23:43.002Z,8.80
2023-03-01T11:26:12.385Z,8.90
2023-03-01T11:28:42.386Z,9.00
2023-03-01T11:31:15.941Z,9.20
2023-03-01T11:34:15.233Z,9.40
2023-03-01T11:36:55.973Z,9.20
2023-03-01T11:39:39.248Z,9.30
2023-03-01T11:42:44.573Z,9.40
2023-03-01T11:45:13.998Z,9.30
2023-03-01T11:48:16.039Z,9.10
2023-03-01T11:50:48.456Z,9.40
2023-03-01T11:53:33.419Z,9.70
2023-03-01T11:56:42.221Z,9.50
2023-03-01T11:59:45.903Z,9.40
2023-03-01T12:02:53.694Z,9.20
2023-03-01T12:06:06.589Z,9.40
2023-03-01T12:08:46.046Z,9.70
2023-03-01T12:11:58.915Z,9.80
2023-03-01T12:15:08.893Z,9.90
2023-03-01T12:18:09.478Z,9.80
2023-03-01T12:21:36.286Z,9.70
2023-03-01T12:24:49.132Z,9.60
2023-03-01T12:27:53.171Z,9.60
2023-03-01T12:30:58.052Z,9.40
2023-03-01T12:33:55.905Z,9.60
2023-03-01T12:36:50.450Z,9.80
2023-03-01T12:39:46.735Z,10.00
2023-03-01T12:42:48.479Z,10.10
2023-03-01T12:45:42.991Z,9.90
2023-03-01T12:49:02.006Z,9.80
2023-03-01T12:51:34.117Z,9.90
2023-03-01T12:54:32.553Z,10.20
2023-03-01T12:57:08.940Z,10.20
2023-03-01T12:59:43.118Z,10.00
2023-03-01T13:02:36.090Z,10.10
2023-03-01T13:05:30.365Z,10.10
2023-03-01T13:08:34.125Z,10.40
2023-03-01T13:11:05.030Z,10.20
2023-03-01T13:13:32.645Z,10.10
2023-03-01T13:16:24.204Z,10.20
2023-03-01T13:18:52.033Z,10.10
2023-03-01T13:21:32.259Z,10.30
2023-03-01T13:23:59.464Z,10.20
2023-03-01T13:26:26.527Z,9.80
2023-03-01T13:28:58.916Z,9.80
2023-03-01T13:31:28.992Z,9.90
2023-03-01T13:34:09.093Z,9.90
2023-03-01T13:36:37.116Z,10.10
2023-03-01T13:39:40.918Z,10.20
2023-03-01T13:42:40.311Z,10.50
2023-03-01T13:45:21.528Z,10.70
2023-03-01T13:47:55.233Z,10.70
2023-03-01T13:50:26.408Z,10.70
2023-03-01T13:53:04.593Z,10.60
2023-03-01T13:55:41.990Z,10.50
2023-03-01T13:58:24.276Z,10.50
2023-03-01T14:01:06.806Z,10.40
2023-03-01T14:03:42.756Z,10.00
2023-03-01T14:06:19.725Z,9.70
2023-03-01T14:08:52.704Z,9.60
2023-03-01T14:11:53.630Z,9.40
2023-03-01T14:14:43.125Z,9.30
2023-03-01T14:17:42.065Z,9.30
2023-03-01T14:20:20.170Z,9.20
2023-03-01T14:22:49.133Z,9.40
2023-03-01T14:25:24.166Z,9.30
2023-03-01T14:28:05.758Z,9.20
2023-03-01T14:30:41.874Z,9.10
2023-03-01T14:33:30.424Z,9.00
2023-03-01T14:36:06.330Z,9.00
2023-03-01T14:39:05.701Z,8.90
2023-03-01T14:41:36.662Z,8.80
2023-03-01T14:44:09.056Z,8.70
2023-03-01T14:46:40.180Z,8.70
2023-03-01T14:49:16.286Z,8.70
2023-03-01T14:51:55.796Z,8.80
2023-03-01T14:54:45.823Z,8.70
2023-03-01T14:57:26.485Z,8.70
2023-03-01T14:59:59.541Z,8.50
2023-03-01T15:02:28.557Z,8.40
2023-03-01T15:05:03.502Z,8.40
2023-03-01T15:07:35.674Z,8.30
2023-03-01T15:10:07.230Z,8.30
2023-03-01T15:12:42.149Z,8.30
2023-03-01T15:15:34.464Z,8.30
2023-03-01T15:18:23.326Z,8.30
2023-03-01T15:20:51.678Z,8.20
2023-03-01T15:23:29.636Z,8.20
2023-03-01T15:25:57.817Z,8.10
2023-03-01T15:28:34.815Z,8.00
2023-03-01T15:31:16.691Z,8.10
2023-03-01T15:33:48.345Z,8.00
2023-03-01T15:36:44.323Z,7.90
2023-03-01T15:39:44.484Z,8.00
2023-03-01T15:42:34.411Z,7.90
2023-03-01T15:45:24.440Z,7.90
2023-03-01T15:47:55.148Z,7.90
2023-03-01T15:50:27.701Z,7.90
2023-03-01T15:52:55.479Z,7.90
2023-03-01T15:55:30.760Z,7.80
2023-03-01T15:58:11.176Z,7.90
2023-03-01T16:00:40.922Z,7.80
2023-03-01T16:03:12.976Z,7.70
2023-03-01T16:05:40.495Z,7.70
2023-03-01T16:08:07.979Z,7.60
2023-03-01T16:10:36.399Z,7.60
2023-03-01T16:13:03.378Z,7.60
2023-03-01T16:16:00.123Z,7.50
2023-03-01T16:18:27.218Z,7.50
2023-03-01T16:20:57.707Z,7.50
2023-03-01T16:23:26.028Z,7.40
2023-03-01T16:26:00.167Z,7.40
2023-03-01T16:28:29.247Z,7.30
2023-03-01T16:30:56.445Z,7.30
2023-03-01T16:33:28.044Z,7.30
2023-03-01T16:36:01.216Z,7.30
2023-03-01T16:38:30.438Z,7.20
2023-03-01T16:40:57.424Z,7.10
2023-03-01T16:43:24.554Z,7.00
2023-03-01T16:45:51.757Z,7.00
2023-03-01T16:48:19.142Z,6.90
2023-03-01T16:50:46.227Z,6.80
2023-03-01T16:53:13.203Z,6.80
2023-03-01T16:55:46.307Z,6.70
2023-03-01T16:58:13.439Z,6.70
2023-03-01T17:00:40.413Z,6.60
2023-03-01T17:03:07.528Z,6.60
2023-03-01T17:05:34.594Z,6.50
2023-03-01T17:08:01.771Z,6.40
2023-03-01T17:10:28.779Z,6.30
2023-03-01T17:12:55.773Z,6.20
2023-03-01T17:15:23.171Z,6.10
2023-03-01T17:17:51.951Z,6.00
2023-03-01T17:20:19.520Z,5.90
2023-03-01T17:22:46.598Z,5.80
2023-03-01T17:25:14.091Z,5.70
2023-03-01T17:27:41.513Z,5.60
2023-03-01T17:30:11.722Z,5.50
2023-03-01T17:32:39.411Z,5.30
2023-03-01T17:35:08.156Z,5.20
2023-03-01T17:37:37.018Z,5.20
2023-03-01T17:40:05.035Z,5.10
2023-03-01T17:42:33.026Z,5.00
2023-03-01T17:45:00.807Z,4.90
2023-03-01T17:47:27.804Z,4.80
2023-03-01T17:49:54.810Z,4.70
2023-03-01T17:52:23.783Z,4.60
2023-03-01T17:54:51.035Z,4.50
2023-03-01T17:57:18.157Z,4.40
2023-03-01T17:59:45.166Z,4.30
2023-03-01T18:02:13.606Z,4.20
2023-03-01T18:04:40.745Z,4.20
2023-03-01T18:07:07.813Z,4.10
2023-03-01T18:09:34.754Z,4.00
2023-03-01T18:12:02.341Z,4.10
2023-03-01T18:14:34.056Z,4.00
2023-03-01T18:17:06.743Z,4.00
2023-03-01T18:19:33.733Z,3.90
2023-03-01T18:22:00.674Z,3.80
2023-03-01T18:24:27.739Z,3.80
2023-03-01T18:26:54.700Z,3.80
2023-03-01T18:29:21.696Z,3.70
2023-03-01T18:31:48.988Z,3.70
2023-03-01T18:34:16.193Z,3.60
2023-03-01T18:36:47.911Z,3.60
2023-03-01T18:39:23.839Z,3.60
2023-03-01T18:41:51.180Z,3.50
2023-03-01T18:44:18.507Z,3.50
2023-03-01T18:46:48.892Z,3.50
2023-03-01T18:49:16.708Z,3.40
2023-03-01T18:51:44.067Z,3.40
2023-03-01T18:54:14.235Z,3.30
2023-03-01T18:56:41.291Z,3.20
2023-03-01T18:59:08.403Z,3.20
2023-03-01T19:01:37.326Z,3.10
2023-03-01T19:04:06.525Z,3.00
2023-03-01T19:06:35.355Z,2.90
2023-03-01T19:09:04.061Z,2.70
2023-03-01T19:11:33.489Z,2.60
2023-03-01T19:14:04.825Z,2.50
2023-03-01T19:16:34.255Z,2.30
2023-03-01T19:19:04.397Z,2.20
2023-03-01T19:21:33.742Z,2.00
2023-03-01T19:24:02.556Z,2.00
2023-03-01T19:26:31.247Z,2.00
2023-03-01T19:28:58.880Z,1.90
2023-03-01T19:31:29.365Z,1.80
2023-03-01T19:34:15.959Z,1.80
2023-03-01T19:36:44.771Z,1.70
2023-03-01T19:39:13.732Z,1.70
2023-03-01T19:41:42.200Z,1.60
2023-03-01T19:44:09.717Z,1.60
2023-03-01T19:46:37.250Z,1.50
2023-03-01T19:49:04.629Z,1.30
2023-03-01T19:51:36.816Z,1.10
2023-03-01T19:54:06.111Z,1.10
2023-03-01T19:56:34.343Z,1.00
2023-03-01T19:59:04.336Z,0.90
2023-03-01T20:01:33.230Z,0.90
2023-03-01T20:04:01.491Z,0.90
2023-03-01T20:06:30.276Z,0.90
2023-03-01T20:08:58.007Z,0.90
2023-03-01T20:11:25.848Z,0.90
2023-03-01T20:13:52.936Z,0.90
2023-03-01T20:16:20.978Z,0.80
2023-03-01T20:18:48.004Z,0.80
2023-03-01T20:21:24.008Z,0.80
2023-03-01T20:23:52.377Z,0.70
2023-03-01T20:26:20.526Z,0.60
2023-03-01T20:28:54.263Z,0.50
2023-03-01T20:31:23.262Z,0.50
2023-03-01T20:33:50.267Z,0.40
2023-03-01T20:36:17.277Z,0.40
2023-03-01T20:38:44.265Z,0.40
2023-03-01T20:41:13.687Z,0.40
2023-03-01T20:43:43.737Z,0.40
2023-03-01T20:46:13.520Z,0.40
2023-03-01T20:48:45.109Z,0.40
2023-03-01T20:51:13.844Z,0.30
2023-03-01T20:53:41.682Z,0.30
2023-03-01T20:56:15.494Z,0.20
2023-03-01T20:58:43.428Z,0.00
2023-03-01T21:01:16.556Z,-0.10
2023-03-01T21:03:43.822Z,-0.20
2023-03-01T21:06:11.029Z,-0.20
2023-03-01T21:08:38.058Z,-0.20
2023-03-01T21:11:07.282Z,-0.20
2023-03-01T21:13:35.980Z,-0.20
2023-03-01T21:16:07.977Z,-0.20
2023-03-01T21:18:36.906Z,-0.20
2023-03-01T21:21:08.535Z,-0.20
2023-03-01T21:23:38.020Z,-0.20
2023-03-01T21:26:26.644Z,-0.20
2023-03-01T21:29:01.332Z,-0.30
2023-03-01T21:31:34.019Z,-0.30
2023-03-01T21:34:05.149Z,-0.40
2023-03-01T21:36:32.954Z,-0.50
2023-03-01T21:39:02.588Z,-0.60
2023-03-01T21:41:32.719Z,-0.60
2023-03-01T21:44:03.687Z,-0.60
2023-03-01T21:46:34.376Z,-0.60
2023-03-01T21:49:04.235Z,-0.70
2023-03-01T21:51:32.624Z,-0.70
2023-03-01T21:54:03.108Z,-0.70
2023-03-01T21:56:33.986Z,-0.80
2023-03-01T21:59:02.816Z,-0.80
2023-03-01T22:01:30.222Z,-0.70
2023-03-01T22:03:59.445Z,-0.70
2023-03-01T22:06:38.248Z,-0.70
2023-03-01T22:09:12.726Z,-0.70
2023-03-01T22:11:44.153Z,-0.70
2023-03-01T22:14:13.562Z,-0.60
2023-03-01T22:16:44.564Z,-0.60
2023-03-01T22:19:14.669Z,-0.60
2023-03-01T22:21:44.416Z,-0.60
2023-03-01T22:24:12.365Z,-0.60
2023-03-01T22:26:43.062Z,-0.60
2023-03-01T22:29:31.988Z,-0.50
2023-03-01T22:31:59.788Z,-0.50
2023-03-01T22:34:28.055Z,-0.50
2023-03-01T22:36:55.121Z,-0.60
2023-03-01T22:39:22.433Z,-0.60
2023-03-01T22:41:50.273Z,-0.60
2023-03-01T22:44:21.673Z,-0.70
2023-03-01T22:46:49.229Z,-0.70
2023-03-01T22:49:17.948Z,-0.70
2023-03-01T22:51:47.587Z,-0.70
2023-03-01T22:54:17.221Z,-0.70
2023-03-01T22:56:44.825Z,-0.70
2023-03-01T22:59:15.428Z,-0.80
2023-03-01T23:01:46.514Z,-0.80
2023-03-01T23:04:15.943Z,-0.80
2023-03-01T23:06:54.066Z,-0.80
2023-03-01T23:09:26.610Z,-0.80
2023-03-01T23:11:55.055Z,-0.80
2023-03-01T23:14:23.371Z,-0.90
2023-03-01T23:16:51.742Z,-0.90
2023-03-01T23:19:20.413Z,-1.00
2023-03-01T23:21:50.232Z,-1.00
2023-03-01T23:24:20.729Z,-1.10
2023-03-01T23:26:55.366Z,-1.20
2023-03-01T23:29:22.867Z,-1.20
2023-03-01T23:31:49.993Z,-1.30
2023-03-01T23:34:17.176Z,-1.20
2023-03-01T23:36:45.196Z,-1.30
2023-03-01T23:39:14.330Z,-1.30
2023-03-01T23:41:41.367Z,-1.30
2023-03-01T23:44:10.940Z,-1.30
2023-03-01T23:46:38.101Z,-1.40
2023-03-01T23:49:05.370Z,-1.40
2023-03-01T23:51:32.507Z,-1.40
2023-03-01T23:54:05.511Z,-1.40
2023-03-01T23:56:39.610Z,-1.40
2023-03-01T23:59:14.425Z,-1.50
